createdAt,value
2022-10-07T00:00:57.604Z,1026.4
2022-10-07T00:02:13.576Z,1026.4
2022-10-07T00:03:29.995Z,1026.4
2022-10-07T00:04:45.199Z,1026.4
2022-10-07T00:06:01.388Z,1026.4
2022-10-07T00:07:17.575Z,1026.5
2022-10-07T00:08:33.754Z,1026.5
2022-10-07T00:09:49.710Z,1026.5
2022-10-07T00:11:06.137Z,1026.4
2022-10-07T00:12:21.346Z,1026.5
2022-10-07T00:13:37.303Z,1026.4
2022-10-07T00:14:53.723Z,1026.4
2022-10-07T00:16:09.679Z,1026.4
2022-10-07T00:17:26.100Z,1026.4
2022-10-07T00:18:42.284Z,1026.4
2022-10-07T00:19:58.481Z,1026.4
2022-10-07T00:21:14.447Z,1026.4
2022-10-07T00:22:30.864Z,1026.4
2022-10-07T00:23:47.045Z,1026.4
2022-10-07T00:25:03.225Z,1026.3
2022-10-07T00:26:19.416Z,1026.3
2022-10-07T00:27:35.609Z,1026.4
2022-10-07T00:28:50.827Z,1026.3
2022-10-07T00:30:07.006Z,1026.4
2022-10-07T00:31:23.188Z,1026.3
2022-10-07T00:32:39.376Z,1026.4
2022-10-07T00:33:55.575Z,1026.4
2022-10-07T00:35:11.528Z,1026.4
2022-10-07T00:36:27.716Z,1026.4
2022-10-07T00:37:44.151Z,1026.4
2022-10-07T00:39:00.324Z,1026.4
2022-10-07T00:40:16.520Z,1026.4
2022-10-07T00:41:32.467Z,1026.4
2022-10-07T00:42:48.895Z,1026.4
2022-10-07T00:44:04.855Z,1026.3
2022-10-07T00:45:20.292Z,1026.3
2022-10-07T00:46:36.255Z,1026.3
2022-10-07T00:47:52.685Z,1026.2
2022-10-07T00:49:08.855Z,1026.3
2022-10-07T00:50:25.042Z,1026.2
2022-10-07T00:51:40.993Z,1026.2
2022-10-07T00:52:57.183Z,1026.2
2022-10-07T00:54:13.619Z,1026.2
2022-10-07T00:55:29.802Z,1026.2
2022-10-07T00:56:46.001Z,1026.1
2022-10-07T00:58:02.187Z,1026.2
2022-10-07T00:59:18.139Z,1026.2
2022-10-07T01:00:34.563Z,1026.1
2022-10-07T01:01:49.755Z,1026.2
2022-10-07T01:03:05.707Z,1026.1
2022-10-07T01:04:21.904Z,1026.1
2022-10-07T01:05:38.094Z,1026.1
2022-10-07T01:06:54.522Z,1026.1
2022-10-07T01:08:10.718Z,1026
2022-10-07T01:09:26.898Z,1026
2022-10-07T01:10:43.094Z,1026.1
2022-10-07T01:11:59.275Z,1026
2022-10-07T01:13:15.470Z,1026
2022-10-07T01:14:31.411Z,1026
2022-10-07T01:15:47.846Z,1025.9
2022-10-07T01:17:04.036Z,1026
2022-10-07T01:18:18.997Z,1026
2022-10-07T01:19:35.412Z,1026
2022-10-07T01:20:51.356Z,1026
2022-10-07T01:22:07.557Z,1025.9
2022-10-07T01:23:23.981Z,1025.9
2022-10-07T01:24:40.177Z,1025.9
2022-10-07T01:25:56.123Z,1025.8
2022-10-07T01:27:12.554Z,1025.8
2022-10-07T01:28:28.492Z,1025.8
2022-10-07T01:29:44.669Z,1025.8
2022-10-07T01:31:01.109Z,1025.7
2022-10-07T01:32:17.289Z,1025.7
2022-10-07T01:33:33.243Z,1025.8
2022-10-07T01:34:48.691Z,1025.8
2022-10-07T01:36:04.627Z,1025.8
2022-10-07T01:37:20.814Z,1025.7
2022-10-07T01:38:36.992Z,1025.7
2022-10-07T01:39:53.187Z,1025.7
2022-10-07T01:41:09.619Z,1025.7
2022-10-07T01:42:25.568Z,1025.7
2022-10-07T01:43:42.000Z,1025.7
2022-10-07T01:44:57.929Z,1025.7
2022-10-07T01:46:14.365Z,1025.7
2022-10-07T01:47:30.560Z,1025.6
2022-10-07T01:48:46.744Z,1025.7
2022-10-07T01:50:02.923Z,1025.7
2022-10-07T01:51:18.145Z,1025.7
2022-10-07T01:52:34.315Z,1025.6
2022-10-07T01:53:50.506Z,1025.6
2022-10-07T01:55:06.707Z,1025.6
2022-10-07T01:56:22.636Z,1025.6
2022-10-07T01:57:39.080Z,1025.6
2022-10-07T01:58:55.259Z,1025.6
2022-10-07T02:00:11.447Z,1025.6
2022-10-07T02:01:27.627Z,1025.5
2022-10-07T02:02:43.829Z,1025.6
2022-10-07T02:04:00.017Z,1025.6
2022-10-07T02:05:16.186Z,1025.6
2022-10-07T02:06:32.000Z,1025.5
2022-10-07T02:07:47.337Z,1025.4
2022-10-07T02:09:03.529Z,1025.5
2022-10-07T02:10:19.954Z,1025.5
2022-10-07T02:11:36.000Z,1025.5
2022-10-07T02:12:52.080Z,1025.5
2022-10-07T02:14:08.516Z,1025.4
2022-10-07T02:15:24.456Z,1025.5
2022-10-07T02:16:40.891Z,1025.4
2022-10-07T02:17:56.828Z,1025.4
2022-10-07T02:19:13.281Z,1025.4
2022-10-07T02:20:29.449Z,1025.4
2022-10-07T02:21:45.395Z,1025.4
2022-10-07T02:23:01.833Z,1025.4
2022-10-07T02:24:17.037Z,1025.4
2022-10-07T02:25:33.219Z,1025.4
2022-10-07T02:26:49.420Z,1025.4
2022-10-07T02:28:05.604Z,1025.4
2022-10-07T02:29:21.786Z,1025.5
2022-10-07T02:30:37.709Z,1025.4
2022-10-07T02:31:54.169Z,1025.5
2022-10-07T02:33:10.339Z,1025.4
2022-10-07T02:34:26.283Z,1025.4
2022-10-07T02:35:42.712Z,1025.3
2022-10-07T02:36:58.902Z,1025.4
2022-10-07T02:38:14.829Z,1025.2
2022-10-07T02:39:31.279Z,1025.3
2022-10-07T02:40:46.227Z,1025.3
2022-10-07T02:42:02.417Z,1025.3
2022-10-07T02:43:18.862Z,1025.3
2022-10-07T02:44:35.049Z,1025.2
2022-10-07T02:45:50.972Z,1025.1
2022-10-07T02:47:07.421Z,1025.2
2022-10-07T02:48:23.611Z,1025.1
2022-10-07T02:49:39.528Z,1025.2
2022-10-07T02:50:55.727Z,1025.1
2022-10-07T02:52:12.173Z,1025.1
2022-10-07T02:53:28.358Z,1025.1
2022-10-07T02:54:44.538Z,1025.1
2022-10-07T02:56:00.739Z,1025.1
2022-10-07T02:57:15.940Z,1025.1
2022-10-07T02:58:32.127Z,1025.1
2022-10-07T02:59:48.302Z,1025.1
2022-10-07T03:01:04.235Z,1025
2022-10-07T03:02:20.412Z,1025.1
2022-10-07T03:03:36.874Z,1025.1
2022-10-07T03:04:53.063Z,1025.1
2022-10-07T03:06:09.257Z,1025.1
2022-10-07T03:07:25.429Z,1025.1
2022-10-07T03:08:41.631Z,1025.1
2022-10-07T03:09:57.818Z,1025
2022-10-07T03:11:13.997Z,1025.1
2022-10-07T03:12:29.924Z,1025
2022-10-07T03:13:45.391Z,1025
2022-10-07T03:15:01.574Z,1025.1
2022-10-07T03:16:17.498Z,1025
2022-10-07T03:17:33.948Z,1024.9
2022-10-07T03:18:49.862Z,1025
2022-10-07T03:20:06.320Z,1025
2022-10-07T03:21:22.506Z,1024.9
2022-10-07T03:22:38.702Z,1024.9
2022-10-07T03:23:54.608Z,1024.9
2022-10-07T03:25:10.809Z,1024.9
2022-10-07T03:26:27.280Z,1024.8
2022-10-07T03:27:43.446Z,1024.9
2022-10-07T03:28:59.360Z,1024.9
2022-10-07T03:30:14.848Z,1024.9
2022-10-07T03:31:31.017Z,1024.8
2022-10-07T03:32:47.204Z,1024.9
2022-10-07T03:34:03.391Z,1024.9
2022-10-07T03:35:19.592Z,1024.8
2022-10-07T03:36:35.783Z,1024.9
2022-10-07T03:37:51.690Z,1024.8
2022-10-07T03:39:07.879Z,1024.8
2022-10-07T03:40:24.345Z,1024.8
2022-10-07T03:41:40.518Z,1024.8
2022-10-07T03:42:56.716Z,1024.8
2022-10-07T03:44:12.895Z,1024.7
2022-10-07T03:45:29.094Z,1024.7
2022-10-07T03:46:44.006Z,1024.7
2022-10-07T03:48:00.204Z,1024.7
2022-10-07T03:49:16.653Z,1024.7
2022-10-07T03:50:32.856Z,1024.6
2022-10-07T03:51:48.761Z,1024.6
2022-10-07T03:53:04.939Z,1024.6
2022-10-07T03:54:21.147Z,1024.6
2022-10-07T03:55:37.600Z,1024.6
2022-10-07T03:56:53.782Z,1024.6
2022-10-07T03:58:09.967Z,1024.5
2022-10-07T03:59:26.159Z,1024.6
2022-10-07T04:00:42.354Z,1024.6
2022-10-07T04:01:58.255Z,1024.6
2022-10-07T04:03:13.744Z,1024.5
2022-10-07T04:04:29.930Z,1024.5
2022-10-07T04:05:46.108Z,1024.6
2022-10-07T04:07:02.297Z,1024.5
2022-10-07T04:08:18.496Z,1024.5
2022-10-07T04:09:34.402Z,1024.5
2022-10-07T04:10:50.862Z,1024.5
2022-10-07T04:12:07.057Z,1024.5
2022-10-07T04:13:23.235Z,1024.6
2022-10-07T04:14:39.416Z,1024.5
2022-10-07T04:15:55.338Z,1024.6
2022-10-07T04:17:11.796Z,1024.5
2022-10-07T04:18:27.977Z,1024.5
2022-10-07T04:19:42.904Z,1024.5
2022-10-07T04:20:59.380Z,1024.5
2022-10-07T04:22:15.566Z,1024.5
2022-10-07T04:23:31.477Z,1024.5
2022-10-07T04:24:47.940Z,1024.5
2022-10-07T04:26:04.126Z,1024.4
2022-10-07T04:27:19.327Z,1024.5
2022-10-07T04:28:35.518Z,1024.4
2022-10-07T04:29:51.436Z,1024.4
2022-10-07T04:31:07.889Z,1024.4
2022-10-07T04:32:24.090Z,1024.4
2022-10-07T04:33:40.269Z,1024.4
2022-10-07T04:34:56.462Z,1024.4
2022-10-07T04:36:12.653Z,1024.3
2022-10-07T04:37:28.831Z,1024.4
2022-10-07T04:38:45.020Z,1024.4
2022-10-07T04:40:01.216Z,1024.4
2022-10-07T04:41:17.108Z,1024.3
2022-10-07T04:42:33.581Z,1024.4
2022-10-07T04:43:48.791Z,1024.3
2022-10-07T04:45:04.964Z,1024.3
2022-10-07T04:46:20.865Z,1024.3
2022-10-07T04:47:37.062Z,1024.3
2022-10-07T04:48:53.539Z,1024.4
2022-10-07T04:50:09.715Z,1024.3
2022-10-07T04:51:25.623Z,1024.3
2022-10-07T04:52:42.105Z,1024.3
2022-10-07T04:53:57.991Z,1024.3
2022-10-07T04:55:14.464Z,1024.3
2022-10-07T04:56:30.651Z,1024.3
2022-10-07T04:57:46.555Z,1024.2
2022-10-07T04:59:03.034Z,1024.2
2022-10-07T05:00:18.230Z,1024.3
2022-10-07T05:01:34.421Z,1024.2
2022-10-07T05:02:50.322Z,1024.2
2022-10-07T05:04:06.792Z,1024.2
2022-10-07T05:05:22.980Z,1024.2
2022-10-07T05:06:38.883Z,1024.1
2022-10-07T05:07:55.361Z,1024.2
2022-10-07T05:09:11.549Z,1024.1
2022-10-07T05:10:27.450Z,1024.1
2022-10-07T05:11:43.924Z,1024.1
2022-10-07T05:13:00.118Z,1024
2022-10-07T05:14:16.304Z,1024
2022-10-07T05:15:32.483Z,1024
2022-10-07T05:16:47.677Z,1024
2022-10-07T05:18:03.585Z,1024.1
2022-10-07T05:19:20.066Z,1024.1
2022-10-07T05:20:36.244Z,1024
2022-10-07T05:21:52.147Z,1024
2022-10-07T05:23:08.620Z,1024
2022-10-07T05:24:24.810Z,1024
2022-10-07T05:25:40.695Z,1024
2022-10-07T05:26:56.886Z,1024
2022-10-07T05:28:13.075Z,1024
2022-10-07T05:29:29.560Z,1023.9
2022-10-07T05:30:45.756Z,1023.9
2022-10-07T05:32:01.636Z,1023.9
2022-10-07T05:33:16.840Z,1023.9
2022-10-07T05:34:33.331Z,1024
2022-10-07T05:35:49.511Z,1023.9
2022-10-07T05:37:05.701Z,1024
2022-10-07T05:38:21.585Z,1023.9
2022-10-07T05:39:38.063Z,1023.9
2022-10-07T05:40:53.956Z,1023.9
2022-10-07T05:42:10.140Z,1023.9
2022-10-07T05:43:26.629Z,1023.9
2022-10-07T05:44:42.827Z,1023.9
2022-10-07T05:45:59.004Z,1023.9
2022-10-07T05:47:15.205Z,1023.9
2022-10-07T05:48:31.085Z,1023.8
2022-10-07T05:49:46.578Z,1023.9
2022-10-07T05:51:02.778Z,1023.9
2022-10-07T05:52:18.954Z,1023.9
2022-10-07T05:53:35.141Z,1023.8
2022-10-07T05:56:07.519Z,1023.8
2022-10-07T05:57:23.701Z,1023.8
2022-10-07T05:58:39.905Z,1023.8
2022-10-07T05:59:56.077Z,1023.8
2022-10-07T06:01:12.276Z,1023.9
2022-10-07T06:02:28.452Z,1023.8
2022-10-07T06:03:44.637Z,1023.7
2022-10-07T06:05:00.838Z,1023.8
2022-10-07T06:06:16.038Z,1023.7
2022-10-07T06:07:32.212Z,1023.7
2022-10-07T06:08:48.416Z,1023.8
2022-10-07T06:10:04.583Z,1023.7
2022-10-07T06:11:20.757Z,1023.8
2022-10-07T06:12:36.976Z,1023.8
2022-10-07T06:13:53.155Z,1023.7
2022-10-07T06:15:09.356Z,1023.8
2022-10-07T06:16:25.539Z,1023.8
2022-10-07T06:17:41.722Z,1023.7
2022-10-07T06:18:57.878Z,1023.7
2022-10-07T06:20:14.106Z,1023.7
2022-10-07T06:21:30.283Z,1023.7
2022-10-07T06:22:45.490Z,1023.7
2022-10-07T06:24:01.685Z,1023.7
2022-10-07T06:25:17.857Z,1023.7
2022-10-07T06:27:50.227Z,1023.6
2022-10-07T06:29:06.388Z,1023.6
2022-10-07T06:30:22.609Z,1023.6
2022-10-07T06:31:38.777Z,1023.7
2022-10-07T06:32:54.986Z,1023.6
2022-10-07T06:34:11.149Z,1023.6
2022-10-07T06:35:27.366Z,1023.6
2022-10-07T06:36:43.548Z,1023.7
2022-10-07T06:37:59.696Z,1023.7
2022-10-07T06:39:14.937Z,1023.7
2022-10-07T06:40:31.120Z,1023.7
2022-10-07T06:41:47.276Z,1023.7
2022-10-07T06:43:03.503Z,1023.7
2022-10-07T06:44:19.685Z,1023.7
2022-10-07T06:45:35.847Z,1023.8
2022-10-07T06:46:52.055Z,1023.7
2022-10-07T06:48:08.253Z,1023.7
2022-10-07T06:49:24.408Z,1023.6
2022-10-07T06:50:40.586Z,1023.7
2022-10-07T06:51:56.817Z,1023.7
2022-10-07T06:53:12.994Z,1023.7
2022-10-07T06:54:29.147Z,1023.7
2022-10-07T06:55:44.386Z,1023.7
2022-10-07T06:57:00.575Z,1023.8
2022-10-07T06:58:16.766Z,1023.7
2022-10-07T06:59:32.958Z,1023.7
2022-10-07T07:00:49.095Z,1023.7
2022-10-07T07:02:05.327Z,1023.7
2022-10-07T07:03:21.475Z,1023.7
2022-10-07T07:04:37.674Z,1023.7
2022-10-07T07:05:53.890Z,1023.7
2022-10-07T07:07:10.076Z,1023.8
2022-10-07T07:08:26.261Z,1023.7
2022-10-07T07:09:42.408Z,1023.7
2022-10-07T07:10:58.607Z,1023.8
2022-10-07T07:12:13.833Z,1023.8
2022-10-07T07:13:30.016Z,1023.7
2022-10-07T07:14:46.203Z,1023.7
2022-10-07T07:16:02.401Z,1023.8
2022-10-07T07:17:18.557Z,1023.8
2022-10-07T07:18:34.765Z,1023.7
2022-10-07T07:19:50.956Z,1023.8
2022-10-07T07:21:07.153Z,1023.7
2022-10-07T07:22:23.289Z,1023.8
2022-10-07T07:23:39.517Z,1023.8
2022-10-07T07:24:55.664Z,1023.8
2022-10-07T07:26:11.888Z,1023.8
2022-10-07T07:27:28.046Z,1023.7
2022-10-07T07:28:43.287Z,1023.7
2022-10-07T07:29:59.480Z,1023.7
2022-10-07T07:31:15.657Z,1023.7
2022-10-07T07:32:31.853Z,1023.7
2022-10-07T07:33:48.036Z,1023.7
2022-10-07T07:35:04.229Z,1023.6
2022-10-07T07:36:20.380Z,1023.7
2022-10-07T07:37:36.598Z,1023.6
2022-10-07T07:38:52.754Z,1023.6
2022-10-07T07:40:08.980Z,1023.6
2022-10-07T07:41:25.155Z,1023.6
2022-10-07T07:42:41.313Z,1023.6
2022-10-07T07:43:57.531Z,1023.5
2022-10-07T07:45:12.740Z,1023.6
2022-10-07T07:46:28.927Z,1023.5
2022-10-07T07:47:45.114Z,1023.5
2022-10-07T07:49:01.289Z,1023.5
2022-10-07T07:50:17.477Z,1023.5
2022-10-07T07:51:33.634Z,1023.5
2022-10-07T07:52:49.867Z,1023.5
2022-10-07T07:54:06.042Z,1023.5
2022-10-07T07:55:22.231Z,1023.5
2022-10-07T07:56:38.383Z,1023.4
2022-10-07T07:57:54.568Z,1023.5
2022-10-07T07:59:10.755Z,1023.5
2022-10-07T08:00:26.977Z,1023.5
2022-10-07T08:01:42.196Z,1023.4
2022-10-07T08:02:58.379Z,1023.5
2022-10-07T08:04:14.521Z,1023.4
2022-10-07T08:05:30.710Z,1023.4
2022-10-07T08:06:46.882Z,1023.5
2022-10-07T08:08:03.128Z,1023.5
2022-10-07T08:09:19.302Z,1023.4
2022-10-07T08:10:35.461Z,1023.4
2022-10-07T08:11:51.683Z,1023.4
2022-10-07T08:13:07.834Z,1023.4
2022-10-07T08:14:24.068Z,1023.4
2022-10-07T08:15:40.245Z,1023.4
2022-10-07T08:16:56.439Z,1023.4
2022-10-07T08:18:11.634Z,1023.4
2022-10-07T08:19:27.822Z,1023.4
2022-10-07T08:20:43.954Z,1023.4
2022-10-07T08:22:00.190Z,1023.4
2022-10-07T08:23:16.389Z,1023.3
2022-10-07T08:24:32.578Z,1023.3
2022-10-07T08:25:48.758Z,1023.3
2022-10-07T08:27:04.951Z,1023.3
2022-10-07T08:28:21.090Z,1023.3
2022-10-07T08:29:37.329Z,1023.3
2022-10-07T08:30:53.501Z,1023.3
2022-10-07T08:32:09.635Z,1023.3
2022-10-07T08:33:25.877Z,1023.2
2022-10-07T08:34:41.086Z,1023.2
2022-10-07T08:35:57.229Z,1023.2
2022-10-07T08:37:13.419Z,1023.2
2022-10-07T08:38:29.658Z,1023.2
2022-10-07T08:39:45.829Z,1023.1
2022-10-07T08:41:02.021Z,1023.1
2022-10-07T08:42:17.187Z,1023.1
2022-10-07T08:43:33.369Z,1023.1
2022-10-07T08:44:49.552Z,1023
2022-10-07T08:46:05.738Z,1023.1
2022-10-07T08:47:21.971Z,1023
2022-10-07T08:48:38.169Z,1023
2022-10-07T08:49:54.348Z,1023
2022-10-07T08:51:10.493Z,1023
2022-10-07T08:52:26.678Z,1023
2022-10-07T08:53:42.919Z,1023
2022-10-07T08:54:59.045Z,1022.9
2022-10-07T08:56:15.242Z,1022.9
2022-10-07T08:57:31.470Z,1022.9
2022-10-07T08:58:46.632Z,1022.9
2022-10-07T09:00:02.861Z,1022.9
2022-10-07T09:01:19.049Z,1022.9
2022-10-07T09:02:35.235Z,1022.9
2022-10-07T09:03:51.432Z,1022.9
2022-10-07T09:05:07.624Z,1022.8
2022-10-07T09:06:23.751Z,1022.8
2022-10-07T09:07:39.939Z,1022.8
2022-10-07T09:08:56.180Z,1022.8
2022-10-07T09:10:12.316Z,1022.8
2022-10-07T09:11:28.546Z,1022.7
2022-10-07T09:12:44.735Z,1022.7
2022-10-07T09:14:00.868Z,1022.6
2022-10-07T09:15:16.128Z,1022.6
2022-10-07T09:16:32.266Z,1022.6
2022-10-07T09:17:48.512Z,1022.6
2022-10-07T09:19:04.632Z,1022.6
2022-10-07T09:20:20.878Z,1022.5
2022-10-07T09:21:37.002Z,1022.5
2022-10-07T09:22:53.258Z,1022.4
2022-10-07T09:24:09.434Z,1022.5
2022-10-07T09:25:25.637Z,1022.5
2022-10-07T09:26:41.811Z,1022.4
2022-10-07T09:27:57.942Z,1022.5
2022-10-07T09:29:14.125Z,1022.4
2022-10-07T09:30:30.377Z,1022.5
2022-10-07T09:31:45.591Z,1022.4
2022-10-07T09:33:01.772Z,1022.4
2022-10-07T09:34:17.962Z,1022.4
2022-10-07T09:35:34.147Z,1022.3
2022-10-07T09:36:50.260Z,1022.4
2022-10-07T09:38:06.515Z,1022.4
2022-10-07T09:39:22.639Z,1022.4
2022-10-07T09:40:38.821Z,1022.3
2022-10-07T09:41:55.013Z,1022.3
2022-10-07T09:43:11.271Z,1022.3
2022-10-07T09:44:27.447Z,1022.3
2022-10-07T09:45:43.583Z,1022.3
2022-10-07T09:46:59.830Z,1022.3
2022-10-07T09:48:15.030Z,1022.2
2022-10-07T09:49:31.219Z,1022.2
2022-10-07T09:50:47.348Z,1022.2
2022-10-07T09:52:03.603Z,1022.1
2022-10-07T09:53:19.781Z,1022.1
2022-10-07T09:54:35.893Z,1022.1
2022-10-07T09:55:52.163Z,1022.1
2022-10-07T09:57:08.337Z,1022.1
2022-10-07T09:58:24.456Z,1022.1
2022-10-07T09:59:40.721Z,1022.1
2022-10-07T10:00:56.905Z,1022.1
2022-10-07T10:02:13.095Z,1022.1
2022-10-07T10:03:29.213Z,1022
2022-10-07T10:04:44.409Z,1022
2022-10-07T10:06:00.668Z,1022.1
2022-10-07T10:07:16.794Z,1022.1
2022-10-07T10:08:33.042Z,1022
2022-10-07T10:09:49.154Z,1022
2022-10-07T10:11:05.426Z,1022
2022-10-07T10:12:21.616Z,1022
2022-10-07T10:13:37.724Z,1022
2022-10-07T10:14:53.908Z,1022
2022-10-07T10:16:10.176Z,1022
2022-10-07T10:17:26.361Z,1021.9
2022-10-07T10:18:42.549Z,1021.9
2022-10-07T10:19:58.742Z,1021.9
2022-10-07T10:21:13.935Z,1021.9
2022-10-07T10:22:30.124Z,1021.9
2022-10-07T10:23:46.234Z,1021.9
2022-10-07T10:25:02.486Z,1021.9
2022-10-07T10:26:18.604Z,1021.8
2022-10-07T10:27:34.798Z,1021.8
2022-10-07T10:28:51.061Z,1021.8
2022-10-07T10:30:07.174Z,1021.7
2022-10-07T10:31:23.434Z,1021.7
2022-10-07T10:32:39.625Z,1021.7
2022-10-07T10:33:55.807Z,1021.7
2022-10-07T10:35:11.988Z,1021.7
2022-10-07T10:36:28.107Z,1021.7
2022-10-07T10:37:43.309Z,1021.6
2022-10-07T10:38:59.568Z,1021.5
2022-10-07T10:40:15.674Z,1021.5
2022-10-07T10:41:31.953Z,1021.5
2022-10-07T10:42:48.129Z,1021.6
2022-10-07T10:44:04.244Z,1021.5
2022-10-07T10:45:20.421Z,1021.4
2022-10-07T10:46:36.700Z,1021.4
2022-10-07T10:47:52.882Z,1021.5
2022-10-07T10:49:08.990Z,1021.4
2022-10-07T10:50:25.178Z,1021.4
2022-10-07T10:51:41.450Z,1021.3
2022-10-07T10:52:57.557Z,1021.2
2022-10-07T10:54:12.838Z,1021.2
2022-10-07T10:55:29.029Z,1021.2
2022-10-07T10:56:45.227Z,1021.2
2022-10-07T10:58:01.407Z,1021.2
2022-10-07T10:59:17.592Z,1021.1
2022-10-07T11:00:33.699Z,1021
2022-10-07T11:01:49.974Z,1021.1
2022-10-07T11:03:06.155Z,1021
2022-10-07T11:04:22.353Z,1021
2022-10-07T11:05:38.549Z,1020.9
2022-10-07T11:06:54.734Z,1020.9
2022-10-07T11:08:10.835Z,1020.8
2022-10-07T11:09:27.021Z,1020.8
2022-10-07T11:10:42.318Z,1020.8
2022-10-07T11:11:58.494Z,1020.8
2022-10-07T11:13:14.689Z,1020.8
2022-10-07T11:14:30.867Z,1020.8
2022-10-07T11:15:46.985Z,1020.7
2022-10-07T11:17:03.247Z,1020.7
2022-10-07T11:18:19.360Z,1020.7
2022-10-07T11:19:35.628Z,1020.7
2022-10-07T11:20:51.824Z,1020.6
2022-10-07T11:22:08.003Z,1020.6
2022-10-07T11:23:24.108Z,1020.6
2022-10-07T11:24:40.395Z,1020.5
2022-10-07T11:25:56.490Z,1020.4
2022-10-07T11:27:11.785Z,1020.5
2022-10-07T11:28:27.969Z,1020.5
2022-10-07T11:29:44.160Z,1020.4
2022-10-07T11:31:00.266Z,1020.3
2022-10-07T11:32:16.532Z,1020.3
2022-10-07T11:33:32.735Z,1020.3
2022-10-07T11:34:48.828Z,1020.3
2022-10-07T11:36:05.104Z,1020.3
2022-10-07T11:37:21.285Z,1020.2
2022-10-07T11:38:37.482Z,1020.3
2022-10-07T11:39:53.585Z,1020.2
2022-10-07T11:41:09.760Z,1020.1
2022-10-07T11:42:26.041Z,1020.2
2022-10-07T11:43:41.246Z,1020.2
2022-10-07T11:44:57.443Z,1020.1
2022-10-07T11:46:13.628Z,1020
2022-10-07T11:47:29.811Z,1020
2022-10-07T11:48:46.014Z,1020
2022-10-07T11:50:02.107Z,1019.9
2022-10-07T11:51:18.395Z,1019.9
2022-10-07T11:52:34.489Z,1019.9
2022-10-07T11:53:50.768Z,1019.9
2022-10-07T11:55:06.964Z,1019.8
2022-10-07T11:56:23.153Z,1019.8
2022-10-07T11:57:39.244Z,1019.8
2022-10-07T11:58:55.420Z,1019.7
2022-10-07T12:00:10.628Z,1019.7
2022-10-07T12:01:26.892Z,1019.6
2022-10-07T12:02:43.085Z,1019.7
2022-10-07T12:03:59.275Z,1019.6
2022-10-07T12:05:15.393Z,1019.6
2022-10-07T12:06:31.643Z,1019.6
2022-10-07T12:07:47.832Z,1019.6
2022-10-07T12:09:03.965Z,1019.7
2022-10-07T12:10:20.218Z,1019.6
2022-10-07T12:11:36.407Z,1019.6
2022-10-07T12:12:52.592Z,1019.6
2022-10-07T12:14:08.792Z,1019.5
2022-10-07T12:15:24.895Z,1019.5
2022-10-07T12:16:40.098Z,1019.5
2022-10-07T12:17:56.370Z,1019.5
2022-10-07T12:19:12.488Z,1019.5
2022-10-07T12:20:28.751Z,1019.4
2022-10-07T12:21:44.927Z,1019.4
2022-10-07T12:23:01.043Z,1019.4
2022-10-07T12:24:17.323Z,1019.3
2022-10-07T12:25:33.510Z,1019.3
2022-10-07T12:26:49.687Z,1019.3
2022-10-07T12:28:05.883Z,1019.2
2022-10-07T12:29:22.072Z,1019.2
2022-10-07T12:30:38.269Z,1019.2
2022-10-07T12:31:54.357Z,1019.2
2022-10-07T12:33:09.651Z,1019.2
2022-10-07T12:34:25.752Z,1019.2
2022-10-07T12:35:42.035Z,1019.1
2022-10-07T12:36:58.225Z,1019.1
2022-10-07T12:38:14.416Z,1019.1
2022-10-07T12:39:30.605Z,1019.1
2022-10-07T12:40:46.793Z,1019
2022-10-07T12:42:02.902Z,1019
2022-10-07T12:43:19.167Z,1019
2022-10-07T12:44:35.355Z,1019
2022-10-07T12:45:51.463Z,1019
2022-10-07T12:47:07.726Z,1018.9
2022-10-07T12:48:23.916Z,1018.9
2022-10-07T12:49:39.131Z,1018.9
2022-10-07T12:50:55.322Z,1018.8
2022-10-07T12:52:11.507Z,1018.9
2022-10-07T12:53:27.703Z,1018.8
2022-10-07T12:54:43.799Z,1018.8
2022-10-07T12:55:59.979Z,1018.8
2022-10-07T12:57:15.196Z,1018.7
2022-10-07T12:58:31.478Z,1018.8
2022-10-07T12:59:47.569Z,1018.8
2022-10-07T13:01:03.853Z,1018.8
2022-10-07T13:02:20.042Z,1018.8
2022-10-07T13:03:36.233Z,1018.8
2022-10-07T13:04:52.329Z,1018.7
2022-10-07T13:06:08.616Z,1018.8
2022-10-07T13:07:24.796Z,1018.8
2022-10-07T13:08:40.906Z,1018.7
2022-10-07T13:09:57.097Z,1018.8
2022-10-07T13:11:13.367Z,1018.7
2022-10-07T13:12:29.552Z,1018.7
2022-10-07T13:13:44.756Z,1018.6
2022-10-07T13:15:00.946Z,1018.7
2022-10-07T13:16:17.043Z,1018.7
2022-10-07T13:17:33.321Z,1018.7
2022-10-07T13:18:49.524Z,1018.7
2022-10-07T13:20:05.705Z,1018.7
2022-10-07T13:21:21.889Z,1018.7
2022-10-07T13:22:37.995Z,1018.6
2022-10-07T13:23:54.284Z,1018.6
2022-10-07T13:25:10.472Z,1018.6
2022-10-07T13:26:26.569Z,1018.5
2022-10-07T13:27:42.843Z,1018.5
2022-10-07T13:28:59.025Z,1018.6
2022-10-07T13:30:14.247Z,1018.5
2022-10-07T13:31:30.340Z,1018.6
2022-10-07T13:32:46.630Z,1018.5
2022-10-07T13:34:02.714Z,1018.5
2022-10-07T13:35:18.989Z,1018.5
2022-10-07T13:36:35.195Z,1018.5
2022-10-07T13:37:51.380Z,1018.5
2022-10-07T13:39:07.565Z,1018.5
2022-10-07T13:40:23.763Z,1018.4
2022-10-07T13:41:39.945Z,1018.4
2022-10-07T13:42:56.136Z,1018.4
2022-10-07T13:44:12.318Z,1018.4
2022-10-07T13:45:28.507Z,1018.4
2022-10-07T13:46:43.712Z,1018.4
2022-10-07T13:47:59.805Z,1018.4
2022-10-07T13:49:16.098Z,1018.4
2022-10-07T13:50:32.297Z,1018.3
2022-10-07T13:51:48.479Z,1018.3
2022-10-07T13:53:04.667Z,1018.3
2022-10-07T13:54:20.000Z,1018.3
2022-10-07T13:55:37.039Z,1018.2
2022-10-07T13:56:53.143Z,1018.2
2022-10-07T13:58:09.426Z,1018.2
2022-10-07T13:59:25.501Z,1018.2
2022-10-07T14:00:41.800Z,1018.2
2022-10-07T14:01:57.989Z,1018.2
2022-10-07T14:03:13.104Z,1018.2
2022-10-07T14:04:29.380Z,1018.2
2022-10-07T14:05:45.584Z,1018.1
2022-10-07T14:07:01.758Z,1018.1
2022-10-07T14:08:17.946Z,1018
2022-10-07T14:09:34.152Z,1018
2022-10-07T14:10:50.231Z,1018.1
2022-10-07T14:12:06.529Z,1018
2022-10-07T14:13:22.717Z,1018
2022-10-07T14:14:38.892Z,1018
2022-10-07T14:15:55.093Z,1018
2022-10-07T14:17:11.269Z,1017.9
2022-10-07T14:18:27.367Z,1017.9
2022-10-07T14:19:42.669Z,1017.9
2022-10-07T14:20:58.862Z,1018
2022-10-07T14:22:15.051Z,1017.9
2022-10-07T14:23:31.132Z,1017.8
2022-10-07T14:24:47.317Z,1017.9
2022-10-07T14:26:03.000Z,1017.8
2022-10-07T14:27:19.695Z,1017.8
2022-10-07T14:28:36.003Z,1017.8
2022-10-07T14:29:52.186Z,1017.7
2022-10-07T14:31:08.381Z,1017.8
2022-10-07T14:32:24.568Z,1017.8
2022-10-07T14:33:40.757Z,1017.7
2022-10-07T14:34:56.931Z,1017.7
2022-10-07T14:36:12.151Z,1017.7
2022-10-07T14:37:28.338Z,1017.7
2022-10-07T14:38:44.515Z,1017.6
2022-10-07T14:40:00.711Z,1017.6
2022-10-07T14:41:16.789Z,1017.6
2022-10-07T14:42:33.084Z,1017.6
2022-10-07T14:43:49.291Z,1017.5
2022-10-07T14:45:05.479Z,1017.5
2022-10-07T14:46:21.651Z,1017.5
2022-10-07T14:47:37.847Z,1017.5
2022-10-07T14:48:53.922Z,1017.5
2022-10-07T14:50:10.118Z,1017.4
2022-10-07T14:51:26.415Z,1017.5
2022-10-07T14:52:41.633Z,1017.4
2022-10-07T14:53:57.808Z,1017.5
2022-10-07T14:55:13.991Z,1017.5
2022-10-07T14:56:30.087Z,1017.4
2022-10-07T14:57:46.371Z,1017.4
2022-10-07T14:59:02.569Z,1017.4
2022-10-07T15:00:18.652Z,1017.4
2022-10-07T15:01:34.833Z,1017.3
2022-10-07T15:02:51.135Z,1017.4
2022-10-07T15:04:07.329Z,1017.4
2022-10-07T15:05:23.508Z,1017.3
2022-10-07T15:06:39.708Z,1017.3
2022-10-07T15:07:55.889Z,1017.3
2022-10-07T15:09:11.096Z,1017.2
2022-10-07T15:10:27.174Z,1017.2
2022-10-07T15:11:43.363Z,1017.2
2022-10-07T15:12:59.670Z,1017.2
2022-10-07T15:14:15.862Z,1017.2
2022-10-07T15:15:31.928Z,1017.2
2022-10-07T15:16:48.231Z,1017.2
2022-10-07T15:18:04.298Z,1017.2
2022-10-07T15:19:20.613Z,1017.1
2022-10-07T15:20:36.799Z,1017.2
2022-10-07T15:21:52.979Z,1017.1
2022-10-07T15:23:09.182Z,1017.1
2022-10-07T15:24:25.370Z,1017.1
2022-10-07T15:25:40.450Z,1017
2022-10-07T15:26:56.636Z,1017.1
2022-10-07T15:28:12.956Z,1017
2022-10-07T15:29:29.148Z,1017
2022-10-07T15:30:45.317Z,1017
2022-10-07T15:32:01.404Z,1017
2022-10-07T15:33:17.714Z,1017
2022-10-07T15:34:33.769Z,1017
2022-10-07T15:35:50.078Z,1016.9
2022-10-07T15:37:06.274Z,1016.9
2022-10-07T15:38:22.468Z,1016.9
2022-10-07T15:39:38.522Z,1016.9
2022-10-07T15:40:54.840Z,1016.9
2022-10-07T15:42:09.922Z,1016.9
2022-10-07T15:43:26.235Z,1016.9
2022-10-07T15:44:42.420Z,1016.9
2022-10-07T15:45:58.612Z,1016.9
2022-10-07T15:47:14.803Z,1016.9
2022-10-07T15:48:30.858Z,1016.9
2022-10-07T15:49:47.178Z,1016.9
2022-10-07T15:51:03.370Z,1016.9
2022-10-07T15:52:19.550Z,1016.9
2022-10-07T15:53:35.615Z,1017
2022-10-07T15:54:51.810Z,1017
2022-10-07T15:56:07.992Z,1017
2022-10-07T15:57:24.189Z,1017
2022-10-07T15:58:39.519Z,1016.9